createdAt,value
2022-12-03T17:40:28.824Z,22.65
2022-12-03T17:42:55.433Z,21.77
2022-12-03T17:45:24.587Z,24.05
2022-12-03T17:47:51.133Z,21.20
2022-12-03T17:50:26.587Z,22.30
2022-12-03T17:52:54.544Z,24.00
2022-12-03T17:55:30.997Z,21.70
2022-12-03T17:58:03.424Z,22.25
2022-12-03T18:00:30.077Z,19.88
2022-12-03T18:02:56.645Z,21.17
2022-12-03T18:05:23.183Z,22.60
2022-12-03T18:07:52.675Z,23.80
2022-12-03T18:10:22.956Z,22.98
2022-12-03T18:12:49.609Z,26.38
2022-12-03T18:15:16.798Z,21.92
2022-12-03T18:17:43.337Z,25.95
2022-12-03T18:20:10.012Z,24.25
2022-12-03T18:22:36.566Z,21.67
2022-12-03T18:25:03.594Z,26.40
2022-12-03T18:27:30.164Z,24.52
2022-12-03T18:29:57.268Z,23.55
2022-12-03T18:32:29.178Z,26.45
2022-12-03T18:34:56.920Z,24.50
2022-12-03T18:37:27.207Z,24.85
2022-12-03T18:39:54.062Z,29.65
2022-12-03T18:42:21.623Z,26.98
2022-12-03T18:44:50.007Z,27.90
2022-12-03T18:47:18.708Z,29.05
2022-12-03T18:49:45.393Z,26.98
2022-12-03T18:52:15.861Z,27.92
2022-12-03T18:54:45.158Z,27.48
2022-12-03T18:57:11.712Z,28.08
2022-12-03T18:59:41.502Z,31.10
2022-12-03T19:02:08.229Z,26.15
2022-12-03T19:04:34.835Z,31.05
2022-12-03T19:07:03.313Z,30.52
2022-12-03T19:09:32.785Z,27.42
2022-12-03T19:11:59.355Z,25.92
2022-12-03T19:14:29.044Z,26.45
2022-12-03T19:16:55.696Z,26.23
2022-12-03T19:19:22.267Z,27.73
2022-12-03T19:21:51.937Z,29.63
2022-12-03T19:24:25.892Z,27.63
2022-12-03T19:26:54.858Z,26.75
2022-12-03T19:29:24.723Z,26.70
2022-12-03T19:31:51.956Z,26.73
2022-12-03T19:34:18.706Z,28.70
2022-12-03T19:36:48.271Z,26.10
2022-12-03T19:39:14.911Z,27.40
2022-12-03T19:41:43.649Z,36.05
2022-12-03T19:44:14.437Z,30.65
2022-12-03T19:46:41.096Z,33.58
2022-12-03T19:49:11.022Z,29.27
2022-12-03T19:51:37.677Z,27.20
2022-12-03T19:54:05.467Z,29.40
2022-12-03T19:56:32.056Z,29.35
2022-12-03T19:58:58.788Z,31.05
2022-12-03T20:01:27.189Z,29.88
2022-12-03T20:03:58.173Z,29.15
2022-12-03T20:06:26.648Z,30.35
2022-12-03T20:08:57.390Z,27.17
2022-12-03T20:11:25.559Z,30.75
2022-12-03T20:13:53.556Z,29.13
2022-12-03T20:16:29.059Z,24.80
2022-12-03T20:19:00.127Z,27.80
2022-12-03T20:21:26.898Z,33.80
2022-12-03T20:23:53.460Z,28.98
2022-12-03T20:26:20.949Z,29.40
2022-12-03T20:28:48.447Z,26.60
2022-12-03T20:31:18.716Z,29.33
2022-12-03T20:33:48.414Z,29.52
2022-12-03T20:36:22.971Z,28.05
2022-12-03T20:38:56.486Z,27.65
2022-12-03T20:41:23.463Z,29.45
2022-12-03T20:43:50.866Z,26.67
2022-12-03T20:46:18.959Z,25.25
2022-12-03T20:48:46.230Z,28.88
2022-12-03T20:51:18.643Z,30.75
2022-12-03T20:53:46.042Z,31.75
2022-12-03T20:56:23.000Z,28.58
2022-12-03T20:58:52.358Z,30.52
2022-12-03T21:01:24.929Z,28.15
2022-12-03T21:03:53.338Z,27.80
2022-12-03T21:06:21.240Z,32.83
2022-12-03T21:11:23.893Z,31.20
2022-12-03T21:13:51.297Z,34.92
2022-12-03T21:16:39.740Z,28.73
2022-12-03T21:19:12.179Z,26.58
2022-12-03T21:21:38.684Z,31.38
2022-12-03T21:24:05.539Z,32.72
2022-12-03T21:26:32.663Z,34.45
2022-12-03T21:28:59.178Z,35.08
2022-12-03T21:31:26.739Z,31.90
2022-12-03T21:33:56.835Z,31.25
2022-12-03T21:36:25.028Z,33.92
2022-12-03T21:38:52.288Z,38.80
2022-12-03T21:41:19.355Z,38.78
2022-12-03T21:43:45.931Z,33.47
2022-12-03T21:47:10.002Z,35.55
2022-12-03T21:49:04.046Z,42.97
2022-12-03T21:51:30.692Z,31.58
2022-12-03T21:53:57.271Z,32.13
2022-12-03T21:56:24.117Z,36.67
2022-12-03T21:58:50.683Z,33.47
2022-12-03T22:01:26.425Z,37.38
2022-12-03T22:03:53.034Z,29.85
2022-12-03T22:06:20.155Z,37.50
2022-12-03T22:08:50.135Z,31.20
2022-12-03T22:11:19.754Z,35.58
2022-12-03T22:13:49.658Z,34.95
2022-12-03T22:16:20.506Z,33.42
2022-12-03T22:18:47.646Z,37.25
2022-12-03T22:21:17.909Z,30.67
2022-12-03T22:23:45.813Z,38.65
2022-12-03T22:28:47.245Z,33.42
2022-12-03T22:31:14.799Z,29.80
2022-12-03T22:33:42.138Z,33.78
2022-12-03T22:36:19.597Z,34.30
2022-12-03T22:38:47.803Z,34.47
2022-12-03T22:41:14.788Z,32.53
2022-12-03T22:43:41.986Z,36.90
2022-12-03T22:46:12.399Z,41.15
2022-12-03T22:48:40.828Z,37.80
2022-12-03T22:51:19.072Z,36.22
2022-12-03T22:53:56.511Z,37.88
2022-12-03T22:56:23.728Z,35.78
2022-12-03T22:58:50.331Z,32.15
2022-12-03T23:01:24.853Z,34.58
2022-12-03T23:03:51.679Z,35.60
2022-12-03T23:06:19.426Z,37.42
2022-12-03T23:08:49.743Z,33.10
2022-12-03T23:11:22.490Z,39.38
2022-12-03T23:13:49.047Z,39.28
2022-12-03T23:16:22.205Z,34.53
2022-12-03T23:18:54.705Z,36.15
2022-12-03T23:21:29.486Z,41.28
2022-12-03T23:23:57.316Z,36.63
2022-12-03T23:26:27.051Z,31.55
2022-12-03T23:28:53.888Z,36.72
2022-12-03T23:31:31.467Z,38.25
2022-12-03T23:33:59.431Z,36.95
2022-12-03T23:36:28.709Z,41.60
2022-12-03T23:38:57.791Z,37.72
2022-12-03T23:41:25.363Z,33.10
2022-12-03T23:44:01.341Z,39.20
2022-12-03T23:46:28.498Z,35.03
2022-12-03T23:48:55.655Z,33.60
2022-12-03T23:51:31.730Z,37.55
2022-12-03T23:53:58.262Z,36.33
2022-12-03T23:56:40.686Z,38.55
2022-12-03T23:59:07.164Z,36.40
